Airfield :
LOGIN :

Register | Disclaimer

   EN    FR    IT 

 










Legend :    VFR   Marginal VFR   IFR   Intensive IFR   Very Intensive IFR
Visi :
Ceiling :
>= 8 km
>= 3000ft
5 to 8 km
1000 to 3000 ft
1500m to 5 km
500 to 1000 ft
800 to 1500m
200 to 500 ft
< 800m
< 200 ft
Symbols :   Thunderstorms  Fog  Heavy snow  Heavy precipitations  Wind > 20 kt
SIGMETs :     Misc.  Thunderstorms  Icing  Turbulence  Mountain Waves  Volcanic Ashes







- Airport Elevation : 776 ft
- IATA code : RMS


ETAR - Ramstein Air Base

CURRENT METAR :
  • 251756Z AUTO 08003KT 9999 CLR 10/06 A3061 RMK AO2 SLP378 T00960056 10152 20087 55000 $

EXPIRED METARs :
  • 251656Z AUTO 04008KT 9999 CLR 13/06 A3060 RMK AO2 SLP372 T01270063 $
  • 251556Z AUTO 05011KT 9999 CLR 14/07 A3060 RMK AO2 SLP372 T01440072 $

TAF TAF ETAR
Valid from the 25 at 18:00 until the 27 at 00:00 UTC


251800Z 2518/2624 06009KT 9999 FEW100 QNH3059INS
BECMG 2600/2601 10006KT 8000 BR FEW060 QNH3056INS
BECMG 2603/2604 08006KT 9999 NSW SKC QNH3055INS TX14/2614Z TN01/2605Z
No reported NOTAMs for that airfield.



MET'MAP, your aeronautical weather chart ! - Copyright ORBIFLY December 2007 - Disclaimer

ORBIFLY MET'MAP TEAM :

Programming & Development : Alexandra Zaïnal
Concept & Development : Baudouin d'Aumeries
Co-Development & Prog : Marc-Olivier Méhu
Technical & hardware support : Manuel Goepfert

Contact : metmap@orbifly.com




SOURCES & CREDITS :

   NOAA